createdAt,value
2019-02-02T00:00:40.787Z,2.10
2019-02-02T00:03:29.354Z,2.10
2019-02-02T00:06:18.578Z,2.10
2019-02-02T00:09:09.148Z,2.20
2019-02-02T00:11:58.597Z,2.30
2019-02-02T00:14:47.467Z,2.00
2019-02-02T00:17:36.726Z,2.10
2019-02-02T00:20:25.942Z,2.00
2019-02-02T00:23:15.262Z,2.10
2019-02-02T00:26:04.617Z,2.10
2019-02-02T00:28:54.097Z,2.10
2019-02-02T00:31:43.010Z,2.10
2019-02-02T00:34:31.781Z,2.00
2019-02-02T00:37:20.942Z,2.00
2019-02-02T00:40:10.079Z,1.90
2019-02-02T00:42:59.646Z,2.00
2019-02-02T00:45:48.561Z,2.10
2019-02-02T00:48:37.505Z,1.80
2019-02-02T00:51:26.560Z,2.00
2019-02-02T00:54:15.534Z,2.30
2019-02-02T00:57:04.839Z,2.30
2019-02-02T00:59:54.117Z,2.00
2019-02-02T01:02:43.486Z,2.20
2019-02-02T01:05:32.680Z,2.30
2019-02-02T01:08:21.577Z,2.30
2019-02-02T01:11:10.873Z,2.00
2019-02-02T01:13:59.865Z,2.40
2019-02-02T01:16:49.597Z,2.30
2019-02-02T01:19:39.075Z,2.30
2019-02-02T01:22:27.870Z,2.10
2019-02-02T01:25:17.011Z,2.20
2019-02-02T01:28:06.249Z,2.10
2019-02-02T01:30:55.070Z,2.30
2019-02-02T01:33:44.191Z,2.50
2019-02-02T01:36:52.506Z,2.30
2019-02-02T01:39:41.462Z,2.40
2019-02-02T01:42:30.334Z,2.30
2019-02-02T01:45:21.902Z,2.20
2019-02-02T01:48:11.559Z,2.30
2019-02-02T01:51:00.747Z,2.40
2019-02-02T01:53:49.903Z,2.30
2019-02-02T01:56:39.334Z,2.40
2019-02-02T01:59:28.691Z,2.50
2019-02-02T02:02:17.595Z,2.50
2019-02-02T02:05:06.910Z,2.60
2019-02-02T02:07:56.555Z,2.40
2019-02-02T02:10:45.701Z,2.50
2019-02-02T02:13:35.151Z,2.50
2019-02-02T02:16:24.826Z,2.70
2019-02-02T02:19:14.349Z,2.50
2019-02-02T02:22:03.205Z,2.40
2019-02-02T02:24:52.204Z,2.60
2019-02-02T02:27:41.882Z,2.50
2019-02-02T02:30:31.636Z,2.60
2019-02-02T02:33:20.674Z,2.50
2019-02-02T02:36:09.820Z,2.80
2019-02-02T02:38:59.220Z,2.70
2019-02-02T02:41:48.581Z,2.80
2019-02-02T02:44:37.638Z,2.50
2019-02-02T02:47:37.555Z,2.50
2019-02-02T02:50:26.277Z,2.50
2019-02-02T02:53:15.849Z,2.50
2019-02-02T02:56:04.590Z,2.60
2019-02-02T02:58:53.843Z,2.60
2019-02-02T03:01:43.225Z,2.50
2019-02-02T03:04:32.705Z,2.60
2019-02-02T03:07:21.560Z,2.70
2019-02-02T03:10:12.156Z,2.50
2019-02-02T03:13:01.244Z,2.70
2019-02-02T03:15:50.747Z,2.30
2019-02-02T03:18:39.830Z,2.60
2019-02-02T03:21:28.890Z,2.60
2019-02-02T03:24:17.739Z,2.60
2019-02-02T03:27:07.018Z,2.60
2019-02-02T03:29:56.285Z,2.70
2019-02-02T03:32:45.720Z,2.50
2019-02-02T03:35:34.641Z,2.70
2019-02-02T03:38:23.666Z,2.70
2019-02-02T03:41:12.958Z,2.90
2019-02-02T03:44:04.822Z,2.50
2019-02-02T03:46:53.917Z,2.60
2019-02-02T03:49:43.070Z,2.70
2019-02-02T03:52:32.630Z,2.60
2019-02-02T03:55:21.795Z,2.80
2019-02-02T03:58:10.945Z,2.60
2019-02-02T04:01:00.218Z,2.70
2019-02-02T04:03:49.418Z,2.70
2019-02-02T04:06:38.269Z,2.70
2019-02-02T04:09:27.856Z,2.60
2019-02-02T04:12:17.090Z,2.70
2019-02-02T04:15:06.837Z,2.60
2019-02-02T04:17:56.077Z,2.70
2019-02-02T04:20:45.474Z,2.60
2019-02-02T04:23:34.779Z,2.60
2019-02-02T04:26:23.827Z,2.60
2019-02-02T04:29:17.783Z,2.40
2019-02-02T04:32:03.573Z,2.70
2019-02-02T04:34:52.627Z,2.50
2019-02-02T04:37:41.600Z,2.50
2019-02-02T04:40:30.469Z,2.60
2019-02-02T04:43:19.833Z,2.50
2019-02-02T04:46:08.743Z,2.70
2019-02-02T04:48:57.933Z,2.70
2019-02-02T04:51:47.112Z,2.70
2019-02-02T04:54:36.213Z,2.70
2019-02-02T04:57:25.815Z,2.90
2019-02-02T05:00:26.848Z,2.80
2019-02-02T05:03:16.021Z,2.80
2019-02-02T05:06:05.109Z,2.80
2019-02-02T05:08:54.278Z,2.90
2019-02-02T05:11:43.702Z,2.70
2019-02-02T05:14:32.776Z,3.00
2019-02-02T05:17:21.819Z,3.00
2019-02-02T05:20:12.107Z,2.90
2019-02-02T05:23:01.321Z,2.70
2019-02-02T05:25:50.647Z,3.10
2019-02-02T05:28:39.823Z,2.80
2019-02-02T05:31:29.244Z,2.80
2019-02-02T05:34:18.493Z,3.10
2019-02-02T05:37:07.686Z,2.90
2019-02-02T05:39:56.467Z,3.10
2019-02-02T05:42:45.944Z,2.80
2019-02-02T05:45:35.245Z,2.90
2019-02-02T05:48:24.313Z,3.10
2019-02-02T05:51:13.532Z,3.20
2019-02-02T05:54:04.597Z,3.00
2019-02-02T05:56:53.658Z,3.00
2019-02-02T05:59:52.441Z,3.20
2019-02-02T06:02:33.361Z,3.10
2019-02-02T06:05:22.672Z,3.10
2019-02-02T06:08:12.138Z,3.10
2019-02-02T06:11:01.043Z,3.00
2019-02-02T06:13:50.288Z,3.00
2019-02-02T06:16:39.634Z,3.10
2019-02-02T06:19:29.061Z,3.10
2019-02-02T06:22:18.278Z,3.40
2019-02-02T06:25:09.340Z,3.20
2019-02-02T06:27:58.390Z,3.40
2019-02-02T06:30:47.935Z,3.30
2019-02-02T06:33:37.275Z,3.30
2019-02-02T06:36:26.682Z,3.40
2019-02-02T06:39:16.087Z,3.30
2019-02-02T06:42:05.201Z,3.30
2019-02-02T06:44:54.504Z,3.40
2019-02-02T06:47:43.425Z,3.50
2019-02-02T06:50:34.840Z,3.50
2019-02-02T06:53:23.644Z,3.80
2019-02-02T06:56:12.618Z,3.70
2019-02-02T06:59:01.826Z,3.90
2019-02-02T07:01:50.894Z,3.90
2019-02-02T07:04:40.011Z,3.90
2019-02-02T07:07:29.428Z,3.80
2019-02-02T07:10:20.649Z,3.90
2019-02-02T07:13:09.815Z,4.00
2019-02-02T07:15:58.745Z,3.90
2019-02-02T07:18:48.065Z,4.10
2019-02-02T07:21:36.898Z,4.30
2019-02-02T07:24:25.687Z,4.00
2019-02-02T07:27:14.569Z,4.10
2019-02-02T07:30:05.234Z,4.30
2019-02-02T07:32:54.491Z,4.40
2019-02-02T07:35:43.486Z,4.40
2019-02-02T07:38:32.933Z,4.40
2019-02-02T07:41:21.810Z,4.10
2019-02-02T07:44:10.642Z,4.30
2019-02-02T07:47:00.198Z,4.30
2019-02-02T07:49:49.510Z,4.70
2019-02-02T07:52:38.933Z,4.60
2019-02-02T07:55:28.519Z,4.80
2019-02-02T07:58:17.246Z,4.80
2019-02-02T08:01:06.475Z,4.80
2019-02-02T08:03:55.661Z,5.10
2019-02-02T08:06:46.318Z,4.90
2019-02-02T08:09:35.093Z,5.10
2019-02-02T08:12:24.636Z,4.60
2019-02-02T08:15:16.081Z,5.30
2019-02-02T08:18:05.984Z,5.40
2019-02-02T08:20:54.814Z,5.60
2019-02-02T08:23:43.935Z,5.60
2019-02-02T08:26:32.799Z,5.40
2019-02-02T08:29:21.688Z,5.50
2019-02-02T08:32:10.734Z,5.40
2019-02-02T08:34:59.925Z,5.20
2019-02-02T08:37:49.149Z,5.30
2019-02-02T08:40:38.465Z,5.30
2019-02-02T08:43:27.450Z,5.20
2019-02-02T08:46:17.023Z,5.20
2019-02-02T08:49:06.754Z,5.20
2019-02-02T08:51:55.453Z,5.20
2019-02-02T08:54:45.037Z,5.30
2019-02-02T08:57:37.276Z,5.20
2019-02-02T09:00:26.811Z,5.40
2019-02-02T09:03:15.910Z,5.30
2019-02-02T09:06:05.647Z,5.40
2019-02-02T09:08:54.987Z,5.60
2019-02-02T09:11:43.819Z,5.20
2019-02-02T09:14:32.703Z,5.20
2019-02-02T09:17:21.901Z,5.30
2019-02-02T09:20:11.834Z,5.20
2019-02-02T09:23:06.284Z,5.20
2019-02-02T09:25:52.184Z,5.40
2019-02-02T09:28:41.454Z,5.60
2019-02-02T09:31:30.431Z,5.60
2019-02-02T09:34:19.338Z,5.50
2019-02-02T09:37:08.229Z,5.90
2019-02-02T09:39:57.548Z,6.10
2019-02-02T09:42:47.126Z,5.80
2019-02-02T09:45:36.416Z,5.70
2019-02-02T09:48:26.220Z,6.00
2019-02-02T09:51:15.418Z,6.20
2019-02-02T09:54:04.606Z,6.00
2019-02-02T09:56:53.925Z,6.00
2019-02-02T09:59:43.392Z,5.90
2019-02-02T10:02:32.319Z,5.80
2019-02-02T10:05:21.811Z,5.80
2019-02-02T10:08:10.882Z,5.50
2019-02-02T10:11:00.106Z,5.60
2019-02-02T10:13:52.033Z,5.70
2019-02-02T10:16:40.055Z,5.60
2019-02-02T10:19:30.810Z,5.60
2019-02-02T10:22:20.518Z,5.60
2019-02-02T10:25:11.117Z,5.80
2019-02-02T10:28:00.030Z,5.90
2019-02-02T10:30:49.027Z,5.90
2019-02-02T10:33:37.848Z,6.10
2019-02-02T10:36:27.190Z,5.80
2019-02-02T10:39:16.589Z,6.40
2019-02-02T10:42:05.466Z,6.50
2019-02-02T10:44:54.521Z,6.50
2019-02-02T10:47:43.914Z,6.30
2019-02-02T10:50:33.106Z,6.30
2019-02-02T10:53:22.435Z,6.40
2019-02-02T10:56:11.757Z,6.40
2019-02-02T10:59:01.009Z,6.40
2019-02-02T11:01:51.372Z,6.50
2019-02-02T11:04:40.991Z,6.10
2019-02-02T11:07:30.427Z,6.40
2019-02-02T11:10:24.692Z,6.40
2019-02-02T11:13:16.255Z,6.50
2019-02-02T11:16:04.161Z,6.70
2019-02-02T11:18:53.843Z,6.70
2019-02-02T11:21:43.010Z,6.90
2019-02-02T11:24:32.092Z,7.10
2019-02-02T11:27:21.545Z,7.20
2019-02-02T11:30:12.193Z,7.30
2019-02-02T11:33:01.555Z,7.40
2019-02-02T11:35:50.808Z,7.50
2019-02-02T11:38:40.218Z,7.60
2019-02-02T11:41:29.519Z,7.60
2019-02-02T11:44:20.067Z,7.40
2019-02-02T11:47:09.022Z,7.50
2019-02-02T11:49:57.875Z,7.30
2019-02-02T11:52:47.455Z,7.30
2019-02-02T11:55:36.313Z,7.40
2019-02-02T11:58:25.833Z,7.60
2019-02-02T12:01:15.037Z,7.40
2019-02-02T12:04:04.534Z,7.40
2019-02-02T12:06:53.876Z,7.20
2019-02-02T12:09:42.685Z,7.10
2019-02-02T12:12:32.110Z,6.90
2019-02-02T12:15:21.799Z,7.20
2019-02-02T12:18:11.958Z,7.00
2019-02-02T12:21:01.513Z,6.70
2019-02-02T12:23:50.720Z,6.30
2019-02-02T12:26:40.074Z,6.60
2019-02-02T12:29:29.412Z,7.00
2019-02-02T12:32:26.386Z,6.60
2019-02-02T12:35:11.867Z,6.70
2019-02-02T12:38:00.977Z,6.40
2019-02-02T12:40:50.192Z,6.50
2019-02-02T12:43:39.146Z,6.50
2019-02-02T12:46:28.361Z,6.50
2019-02-02T12:49:17.344Z,6.60
2019-02-02T12:52:06.791Z,6.50
2019-02-02T12:54:55.772Z,6.40
2019-02-02T12:57:44.636Z,6.30
2019-02-02T13:00:33.406Z,6.40
2019-02-02T13:03:22.666Z,6.30
2019-02-02T13:06:11.564Z,6.30
2019-02-02T13:09:01.036Z,6.20
2019-02-02T13:11:49.814Z,6.20
2019-02-02T13:14:38.640Z,6.10
2019-02-02T13:17:27.413Z,5.90
2019-02-02T13:20:16.640Z,6.00
2019-02-02T13:23:05.786Z,6.00
2019-02-02T13:26:04.868Z,6.00
2019-02-02T13:28:45.485Z,5.70
2019-02-02T13:31:34.221Z,6.40
2019-02-02T13:34:23.457Z,6.30
2019-02-02T13:37:12.643Z,6.20
2019-02-02T13:40:03.776Z,6.10
2019-02-02T13:42:53.406Z,5.90
2019-02-02T13:45:42.821Z,5.80
2019-02-02T13:48:32.071Z,5.80
2019-02-02T13:51:21.258Z,5.80
2019-02-02T13:54:10.121Z,5.80
2019-02-02T13:56:59.383Z,5.80
2019-02-02T13:59:48.982Z,6.00
2019-02-02T14:02:38.346Z,5.90
2019-02-02T14:05:27.594Z,5.90
2019-02-02T14:08:16.830Z,5.70
2019-02-02T14:11:06.174Z,5.80
2019-02-02T14:13:55.096Z,5.70
2019-02-02T14:16:44.014Z,5.70
2019-02-02T14:19:33.312Z,5.60
2019-02-02T14:22:22.466Z,5.60
2019-02-02T14:25:12.174Z,5.60
2019-02-02T14:28:01.038Z,5.60
2019-02-02T14:30:50.338Z,5.50
2019-02-02T14:33:39.658Z,5.70
2019-02-02T14:36:29.010Z,5.50
2019-02-02T14:39:18.417Z,5.40
2019-02-02T14:42:07.666Z,5.40
2019-02-02T14:44:56.487Z,5.40
2019-02-02T14:47:45.245Z,5.50
2019-02-02T14:50:34.347Z,5.60
2019-02-02T14:53:23.617Z,5.60
2019-02-02T14:56:12.928Z,5.40
2019-02-02T14:59:03.669Z,5.40
2019-02-02T15:01:53.474Z,5.30
2019-02-02T15:04:42.652Z,5.40
2019-02-02T15:07:31.850Z,5.40
2019-02-02T15:10:21.696Z,5.40
2019-02-02T15:13:11.346Z,5.40
2019-02-02T15:16:00.463Z,5.40
2019-02-02T15:18:51.221Z,5.40
2019-02-02T15:21:40.878Z,5.40
2019-02-02T15:24:30.236Z,5.40
2019-02-02T15:27:19.539Z,5.50
2019-02-02T15:30:10.858Z,5.40
2019-02-02T15:33:00.358Z,5.50
2019-02-02T15:35:49.593Z,5.40
2019-02-02T15:38:38.390Z,5.40
2019-02-02T15:41:27.334Z,5.30
2019-02-02T15:44:16.211Z,5.30
2019-02-02T15:47:05.390Z,5.30
2019-02-02T15:49:54.678Z,5.30
2019-02-02T15:52:44.021Z,5.30
2019-02-02T15:55:33.796Z,5.20
2019-02-02T15:58:23.153Z,5.30
2019-02-02T16:01:12.136Z,5.30
2019-02-02T16:04:01.613Z,5.40
2019-02-02T16:06:50.973Z,5.10
2019-02-02T16:09:40.049Z,5.20
2019-02-02T16:12:29.269Z,5.30
2019-02-02T16:15:18.851Z,5.20
2019-02-02T16:18:08.050Z,4.70
2019-02-02T16:20:57.417Z,5.00
2019-02-02T16:23:46.876Z,4.90
2019-02-02T16:26:36.143Z,5.00
2019-02-02T16:29:25.001Z,4.90
2019-02-02T16:32:14.239Z,5.00
2019-02-02T16:35:03.485Z,5.10
2019-02-02T16:37:52.825Z,5.10
2019-02-02T16:40:41.743Z,5.20
2019-02-02T16:43:31.140Z,5.30
2019-02-02T16:46:01.539Z,5.40
2019-02-02T16:48:33.031Z,5.50
2019-02-02T16:51:23.941Z,5.40
2019-02-02T16:54:13.087Z,5.40
2019-02-02T16:56:44.453Z,5.40
2019-02-02T16:59:20.518Z,5.50
2019-02-02T17:01:50.845Z,5.40
2019-02-02T17:04:21.175Z,5.40
2019-02-02T17:06:51.546Z,5.40
2019-02-02T17:09:41.503Z,5.50
2019-02-02T17:12:12.270Z,5.50
2019-02-02T17:14:42.716Z,5.50
2019-02-02T17:17:12.997Z,5.50
2019-02-02T17:19:43.230Z,5.60
2019-02-02T17:22:13.448Z,5.60
2019-02-02T17:24:43.694Z,5.50
2019-02-02T17:27:33.266Z,5.50
2019-02-02T17:30:14.827Z,5.40
2019-02-02T17:32:45.069Z,5.40
2019-02-02T17:35:15.461Z,5.40
2019-02-02T17:37:45.726Z,5.60
2019-02-02T17:40:18.544Z,5.60
2019-02-02T17:42:48.773Z,5.70
2019-02-02T17:45:19.611Z,5.70
2019-02-02T17:47:49.875Z,5.60
2019-02-02T17:50:21.445Z,5.80
2019-02-02T17:52:51.684Z,5.90
2019-02-02T17:55:21.928Z,5.70
2019-02-02T17:57:52.330Z,5.60
2019-02-02T18:00:46.723Z,5.50
2019-02-02T18:03:17.130Z,5.60
2019-02-02T18:05:47.399Z,5.60
2019-02-02T18:08:17.725Z,5.50
2019-02-02T18:10:48.096Z,5.50
2019-02-02T18:13:18.319Z,5.70
2019-02-02T18:15:48.578Z,5.60
2019-02-02T18:18:18.833Z,5.70
2019-02-02T18:20:49.233Z,6.00
2019-02-02T18:23:19.558Z,5.70
2019-02-02T18:25:49.815Z,5.70
2019-02-02T18:28:20.085Z,5.60
2019-02-02T18:30:50.411Z,5.50
2019-02-02T18:33:20.666Z,5.50
2019-02-02T18:35:50.922Z,5.60
2019-02-02T18:38:21.226Z,5.50
2019-02-02T18:40:51.487Z,5.50
2019-02-02T18:43:21.802Z,5.70
2019-02-02T18:45:52.073Z,5.60
2019-02-02T18:48:22.334Z,5.60
2019-02-02T18:50:52.627Z,5.50
2019-02-02T18:53:22.942Z,5.60
2019-02-02T18:56:03.365Z,5.50
2019-02-02T18:58:33.630Z,5.50
2019-02-02T19:01:03.932Z,5.60
2019-02-02T19:03:34.190Z,5.50
2019-02-02T19:06:04.533Z,5.50
2019-02-02T19:08:34.815Z,5.60
2019-02-02T19:11:05.370Z,5.50
2019-02-02T19:13:35.626Z,5.50
2019-02-02T19:16:06.114Z,5.40
2019-02-02T19:18:36.394Z,5.50
2019-02-02T19:21:06.680Z,5.40
2019-02-02T19:23:36.910Z,5.40
2019-02-02T19:26:07.164Z,5.40
2019-02-02T19:28:40.093Z,5.40
2019-02-02T19:31:09.350Z,5.60
2019-02-02T19:33:39.679Z,5.50
2019-02-02T19:36:09.938Z,5.40
2019-02-02T19:38:40.183Z,5.30
2019-02-02T19:41:10.434Z,5.30
2019-02-02T19:43:40.723Z,5.20
2019-02-02T19:46:10.985Z,5.20
2019-02-02T19:48:41.390Z,5.50
2019-02-02T19:51:11.651Z,5.40
2019-02-02T19:53:41.890Z,5.20
2019-02-02T19:56:12.171Z,5.10
2019-02-02T19:58:42.603Z,5.40
2019-02-02T20:01:12.878Z,5.30
2019-02-02T20:03:43.143Z,5.10
2019-02-02T20:06:13.431Z,5.30
2019-02-02T20:08:43.692Z,5.30
2019-02-02T20:11:14.055Z,5.20
2019-02-02T20:13:44.331Z,5.40
2019-02-02T20:16:14.618Z,5.30
2019-02-02T20:18:44.889Z,5.10
2019-02-02T20:21:15.146Z,5.30
2019-02-02T20:23:45.395Z,5.20
2019-02-02T20:26:15.669Z,5.30
2019-02-02T20:28:46.770Z,5.30
2019-02-02T20:31:19.046Z,5.30
2019-02-02T20:33:49.333Z,5.40
2019-02-02T20:36:19.571Z,5.60
2019-02-02T20:38:49.824Z,5.40
2019-02-02T20:41:20.083Z,5.50
2019-02-02T20:43:50.350Z,5.40
2019-02-02T20:46:20.665Z,5.60
2019-02-02T20:48:52.042Z,5.30
2019-02-02T20:51:22.356Z,5.40
2019-02-02T20:53:52.609Z,5.40
2019-02-02T20:56:22.852Z,5.50
2019-02-02T20:58:53.113Z,5.60
2019-02-02T21:01:23.362Z,5.50
2019-02-02T21:03:53.643Z,5.60
2019-02-02T21:06:23.906Z,5.60
2019-02-02T21:08:54.202Z,5.60
2019-02-02T21:11:24.464Z,5.50
2019-02-02T21:13:55.249Z,5.50
2019-02-02T21:16:25.571Z,5.80
2019-02-02T21:18:55.846Z,5.60
2019-02-02T21:21:26.204Z,5.50
2019-02-02T21:23:56.423Z,5.70
2019-02-02T21:26:26.773Z,5.50
2019-02-02T21:28:57.065Z,5.50
2019-02-02T21:31:27.319Z,5.50
2019-02-02T21:33:57.545Z,5.50
2019-02-02T21:36:27.805Z,5.70
2019-02-02T21:38:58.045Z,5.50
2019-02-02T21:41:28.323Z,5.50
2019-02-02T21:43:58.567Z,5.50
2019-02-02T21:46:28.835Z,5.40
2019-02-02T21:48:59.113Z,5.40
2019-02-02T21:51:29.366Z,5.50
2019-02-02T21:53:59.602Z,5.40
2019-02-02T21:56:29.847Z,5.40
2019-02-02T21:59:00.106Z,5.50
2019-02-02T22:01:30.360Z,5.30
2019-02-02T22:04:00.661Z,5.40
2019-02-02T22:06:30.978Z,5.40
2019-02-02T22:09:01.347Z,5.40
2019-02-02T22:11:31.640Z,5.40
2019-02-02T22:14:02.022Z,5.40
2019-02-02T22:16:32.259Z,5.40
2019-02-02T22:19:02.554Z,5.30
2019-02-02T22:21:32.931Z,5.40
2019-02-02T22:24:03.170Z,5.20
2019-02-02T22:26:33.416Z,5.30
2019-02-02T22:29:03.755Z,5.50
2019-02-02T22:31:33.986Z,5.50
2019-02-02T22:36:53.912Z,5.50
2019-02-02T22:39:24.175Z,5.40
2019-02-02T22:41:54.441Z,5.40
2019-02-02T22:44:24.757Z,5.40
2019-02-02T22:46:55.029Z,5.40
2019-02-02T22:49:25.529Z,5.40
2019-02-02T22:51:55.842Z,5.20
2019-02-02T22:54:26.071Z,5.40
2019-02-02T22:56:56.349Z,5.50
2019-02-02T22:59:26.617Z,5.50
2019-02-02T23:02:01.380Z,5.40
2019-02-02T23:05:15.367Z,5.30
2019-02-02T23:08:02.181Z,5.40
2019-02-02T23:10:57.921Z,5.30
2019-02-02T23:13:52.882Z,5.30
2019-02-02T23:16:28.305Z,5.20
2019-02-02T23:18:59.357Z,5.20
2019-02-02T23:21:30.811Z,5.10
2019-02-02T23:24:01.086Z,5.00
2019-02-02T23:26:31.363Z,4.90
2019-02-02T23:29:01.661Z,4.90
2019-02-02T23:31:31.918Z,5.10
2019-02-02T23:34:02.168Z,5.10
2019-02-02T23:36:32.430Z,5.20
2019-02-02T23:39:03.482Z,5.20
2019-02-02T23:41:33.731Z,5.20
2019-02-02T23:44:03.957Z,5.30
2019-02-02T23:46:34.253Z,5.20
2019-02-02T23:49:04.502Z,5.20
2019-02-02T23:51:34.890Z,5.20
2019-02-02T23:54:05.120Z,5.20
2019-02-02T23:56:35.342Z,5.20
2019-02-02T23:59:05.941Z,5.30
